Nearby METAR Reports

 

KOZR - Ozark/Cairns Aaf, Alabama, USA
Distance from station: SSW 2mi, 3km
Updated: Fri, 14-Dec-2018 6:03pm CST
Mostly cloudy
Mostly cloudy
 Wind from S
Wind: S 6 mph , 9 km/h
Temperature: 64°F , 18°C
Dew Point: 64°F , 18°C
Humidity: 100%
Barometer: 29.86 inHg , 1011.2 hPa
Clouds: Mostly cloudy
Visibility: 10 miles , 16 km
Cloud details: Mostly cloudy 11000 ft
2018/12/15 00:03 KOZR 150003Z AUTO 18005KT 10SM BKN110 18/18 A2986 RMK AO2 PRESRR SLP112
KHEY - Ft Rucker/Hanche, Alabama, USA
Distance from station: NE 4mi, 7km
Updated: Fri, 14-Dec-2018 6:19pm CST
Overcast
Overcast
 Wind from W
Wind: W 7 mph , 11 km/h
Temperature: 64°F , 18°C
Dew Point: 63°F , 17°C
Humidity: 94%
Barometer: 29.85 inHg , 1010.8 hPa
Clouds: Overcast
Visibility: 10 miles , 16 km
Cloud details: Overcast 12000 ft
2018/12/15 00:19 KHEY 150019Z AUTO 26006KT 10SM OVC120 18/17 A2985 RMK AO2 SLP109
 
KLOR - Lowe Ahp/Ft. Ruc, Alabama, USA
Distance from station: NW 4mi, 7km
Updated: Fri, 14-Dec-2018 5:58pm CST
Mostly cloudy
Mostly cloudy
 Wind from SSW
Wind: SSW 7 mph , 11 km/h
Temperature: 64°F , 18°C
Dew Point: 64°F , 18°C
Humidity: 100%
Barometer: 29.85 inHg , 1010.8 hPa
Clouds: Mostly cloudy
Visibility: 7 miles , 11 km
Cloud details: Mostly cloudy 11000 ft
2018/12/14 23:58 KLOR 142358Z AUTO 21006KT 7SM BKN110 18/18 A2985 RMK AO2 DZE04RAB14E34 SLPNO P0000 60002 T01810178 10188 20180 50004
KSXS - Ft Rucker/Shell, Alabama, USA
Distance from station: WNW 10mi, 16km
Updated: Fri, 14-Dec-2018 6:13pm CST
Mostly cloudy
Mostly cloudy
 Wind from W
Wind: W 12 mph , 19 km/h, Gust: 20 mph , 31 km/h
Temperature: 63°F , 17°C
Dew Point: 59°F , 15°C
Humidity: 88%
Barometer: 29.86 inHg , 1011.2 hPa
Clouds: Mostly cloudy
Visibility: 10 miles , 16 km
Cloud details: Partly cloudy 1000 ft
Mostly cloudy 1600 ft
Mostly cloudy 12000 ft
2018/12/15 00:13 KSXS 150013Z AUTO 26010G17KT 10SM SCT010 BKN016 BKN120 17/15 A2986 RMK AO2 CIG 015V120 SLP112
 
KEDN - Enterprise, Alabama, USA
Distance from station: W 12mi, 19km
Updated: Fri, 14-Dec-2018 6:15pm CST
Overcast
Overcast
 Wind from WSW
Wind: WSW 6 mph , 9 km/h
Temperature: 61°F , 16°C
Dew Point: 57°F , 14°C
Humidity: 88%
Barometer: 29.88 inHg , 1011.9 hPa
Clouds: Overcast
Visibility: 10 miles , 16 km
Cloud details: Partly cloudy 500 ft
Partly cloudy 900 ft
Overcast 2100 ft
2018/12/15 00:15 KEDN 150015Z AUTO 25005KT 10SM SCT005 SCT009 OVC021 16/14 A2988 RMK AO2 T01600142
KDHN - Dothan, Alabama, USA
Distance from station: E 15mi, 24km
Updated: Fri, 14-Dec-2018 5:53pm CST
Light rain, Overcast
Light rain, Overcast
 Wind from SE
Wind: SE 8 mph , 13 km/h
Temperature: 64°F , 18°C
Dew Point: 63°F , 17°C
Humidity: 94%
Barometer: 29.89 inHg , 1012.2 hPa
Summary: Light rain
Clouds: Overcast
Visibility: 10 miles , 16 km
Cloud details: Overcast 10000 ft
2018/12/14 23:53 KDHN 142353Z 13007KT 10SM -RA OVC100 18/17 A2989 RMK AO2 SLP117 P0002 60007 T01830172 10189 20178 50007
 
K1J0 - Bonifay Tri-Cty, Florida, USA
Distance from station: S 32mi, 52km
Updated: Wed, 14-Nov-2018 8:23pm CST
NOT Current
Light rain, Overcast
Light rain, Overcast
 Wind from NW
Wind: NW 3 mph , 6 km/h
Temperature: 52°F , 11°C
Dew Point: 52°F , 11°C
Humidity: 100%
Barometer: 30.15 inHg , 1021 hPa
Summary: Light rain
Clouds: Overcast
Visibility: 9 miles , 14 km
Cloud details: Mostly cloudy 700 ft
Overcast 11000 ft
2018/11/15 02:23 K1J0 150223Z AUTO 32003KT 9SM -RA BKN007 OVC110 11/11 A3015 RMK AO2 P0000 T01060106 $
K0J4 - Florala Muni, Alabama, USA
Distance from station: WSW 41mi, 65km
Updated: Fri, 14-Dec-2018 5:58pm CST
Partly cloudy
Partly cloudy
 Wind from SW
Wind: SW 7 mph , 11 km/h
Temperature: 59°F , 15°C
Dew Point: 48°F , 9°C
Humidity: 68%
Barometer: 29.91 inHg , 1012.9 hPa
Clouds: Partly cloudy
Visibility: 10 miles , 16 km
Cloud details: Partly cloudy 12000 ft
2018/12/14 23:58 K0J4 142358Z AUTO 22006KT 10SM SCT120 15/09 A2991 RMK AO2 SLP126 60000 T01500094 10206 20150 53015 $
 
K79J - Andalusia/Opp Ar, Alabama, USA
Distance from station: W 41mi, 66km
Updated: Fri, 14-Dec-2018 5:56pm CST
Clear
Clear
 Wind from SW
Wind: SW 7 mph , 11 km/h
Temperature: 61°F , 16°C
Dew Point: 52°F , 11°C
Humidity: 72%
Barometer: 29.88 inHg , 1011.9 hPa
Clouds: Clear
Visibility: 10 miles , 16 km
2018/12/14 23:56 K79J 142356Z AUTO 22006KT 10SM CLR 16/11 A2988 RMK AO2 SLP116 60000 T01610106 10211 20161 53018
KTOI - Troy, Alabama, USA
Distance from station: NNW 42mi, 67km
Updated: Fri, 14-Dec-2018 5:53pm CST
Partly cloudy
Partly cloudy
 Wind from SSW
Wind: SSW 9 mph , 15 km/h
Temperature: 64°F , 18°C
Dew Point: 63°F , 17°C
Humidity: 94%
Barometer: 29.84 inHg , 1010.5 hPa
Clouds: Partly cloudy
Visibility: 10 miles , 16 km
Cloud details: Partly cloudy 12000 ft
2018/12/14 23:53 KTOI 142353Z AUTO 20008KT 10SM SCT120 18/17 A2984 RMK AO2 SLP101 60004 T01780167 10183 20172 55000
 
KMAI - Marianna, Florida, USA
Distance from station: SE 45mi, 72km
Updated: Fri, 14-Dec-2018 5:53pm CST
Light rain, Overcast
Light rain, Overcast
 Wind from SE
Wind: SE 6 mph , 9 km/h
Temperature: 64°F , 18°C
Dew Point: 64°F , 18°C
Humidity: 100%
Barometer: 29.89 inHg , 1012.2 hPa
Summary: Light rain
Clouds: Overcast
Visibility: 10 miles , 16 km
Cloud details: Overcast 10000 ft
2018/12/14 23:53 KMAI 142353Z AUTO 13005KT 10SM -RA OVC100 18/18 A2989 RMK AO2 RAB21 SLP122 P0000 60015 T01830183 10194 20178 51023
K54J - De Funiak Sprngs, Florida, USA
Distance from station: SSW 48mi, 77km
Updated: Fri, 14-Dec-2018 4:35pm CST
NOT Current
Overcast
Overcast
 Wind from SSW
Wind: SSW 6 mph , 9 km/h
Temperature: 64°F , 18°C
Dew Point: 63°F , 17°C
Humidity: 94%
Barometer: 29.86 inHg , 1011.2 hPa
Clouds: Overcast
Visibility: 10 miles , 16 km
Cloud details: Overcast 10000 ft
2018/12/14 22:35 K54J 142235Z AUTO 20005KT 10SM OVC100 18/17 A2986 RMK AO2 T01790167
 
KBIJ - Blakely Early C, Georgia, USA
Distance from station: E 48mi, 77km
Updated: Fri, 14-Dec-2018 6:15pm CST
Light rain, Overcast
Light rain, Overcast
 Wind from calm
Wind: Calm
Temperature: 63°F , 17°C
Dew Point: 61°F , 16°C
Humidity: 94%
Barometer: 29.92 inHg , 1013.2 hPa
Summary: Light rain
Clouds: Overcast
Visibility: 10 miles , 16 km
Cloud details: Partly cloudy 1600 ft
Mostly cloudy 7000 ft
Overcast 8500 ft
2018/12/15 00:15 KBIJ 150015Z AUTO 00000KT 10SM -RA SCT016 BKN070 OVC085 17/16 A2992 RMK AO2
KEUF - Eufaula, Alabama, USA
Distance from station: NE 55mi, 89km
Updated: Fri, 14-Dec-2018 5:58pm CST
Light rain, Overcast
Light rain, Overcast
 Wind from calm
Wind: Calm
Temperature: 64°F , 18°C
Dew Point: 64°F , 18°C
Humidity: 100%
Barometer: 29.88 inHg , 1011.9 hPa
Summary: Light rain
Clouds: Overcast
Visibility: 10 miles , 16 km
Cloud details: Overcast 600 ft
2018/12/14 23:58 KEUF 142358Z AUTO 00000KT 10SM -RA OVC006 18/18 A2988 RMK AO2 SLP115 P0002 60021 T01830178 10183 20178 51017
 
KCEW - Crestview, Florida, USA
Distance from station: SW 61mi, 97km
Updated: Fri, 14-Dec-2018 5:53pm CST
Few Clouds
Few Clouds
 Wind from SW
Wind: SW 7 mph , 11 km/h
Temperature: 57°F , 14°C
Dew Point: 50°F , 10°C
Humidity: 77%
Barometer: 29.91 inHg , 1012.9 hPa
Clouds: Few Clouds
Visibility: 10 miles , 16 km
Cloud details: Few Clouds 12000 ft
2018/12/14 23:53 KCEW 142353Z AUTO 23006KT 10SM FEW120 14/10 A2991 RMK AO2 SLP126 60001 T01440100 10206 20144 53013
KPRN - Greenville, Alabama, USA
Distance from station: NW 66mi, 106km
Updated: Fri, 14-Dec-2018 5:56pm CST
Partly cloudy
Partly cloudy
 Wind from SW
Wind: SW 10 mph , 17 km/h, Gust: 18 mph , 30 km/h
Temperature: 63°F , 17°C
Dew Point: 55°F , 13°C
Humidity: 77%
Barometer: 29.85 inHg , 1010.8 hPa
Clouds: Partly cloudy
Visibility: 10 miles , 16 km
Cloud details: Partly cloudy 1100 ft
2018/12/14 23:56 KPRN 142356Z AUTO 23009G16KT 10SM SCT011 17/13 A2985 RMK AO2 SLP104 60000 T01670133 10200 20167 53028 $
 
KECP - Panama City, Florida, USA
Distance from station: S 67mi, 107km
Updated: Fri, 14-Dec-2018 6:12pm CST
Overcast
Overcast
 Wind from SW
Wind: SW 10 mph , 17 km/h
Temperature: 63°F , 17°C
Dew Point: 61°F , 16°C
Humidity: 94%
Barometer: 29.92 inHg , 1013.2 hPa
Clouds: Overcast
Visibility: 10 miles , 16 km
Cloud details: Partly cloudy 900 ft
Partly cloudy 1400 ft
Overcast 11000 ft
2018/12/15 00:12 KECP 150012Z 23009KT 10SM SCT009 SCT014 OVC110 17/16 A2992 RMK AO2 PRESRR T01670156
KEGI - Duke Fld/Eglin, Florida, USA
Distance from station: SW 67mi, 108km
Updated: Fri, 14-Dec-2018 5:57pm CST
Mostly cloudy
Mostly cloudy
 Wind from SW
Wind: SW 5 mph , 7 km/h
Temperature: 57°F , 14°C
Dew Point: 50°F , 10°C
Humidity: 77%
Barometer: 29.89 inHg , 1012.2 hPa
Clouds: Mostly cloudy
Visibility: 10 miles , 16 km
Cloud details: Mostly cloudy 12000 ft
2018/12/14 23:57 KEGI 142357Z 22004KT 10SM BKN120 14/10 A2989 RMK AO2A SLP122 60000 T01440098 10205 20144 52013 $